MMUN/CUN METAR and TAF weather

Enter ICAO airport designator
Station Type Date Time Source
MMUN METAR 2021/07/26 16:48 UTC NOAA

MMUN 261648Z 14005KT 7SM SCT015TCU 32/23 A2996 RMK 8/200


Station Type Date Time Source
MMUN Decoded METAR 2021/07/26 16:48 UTC NOAA

Cancun International Airport, Mexico (MMUN) 21-02N 086-52W
Jul 26, 2021 - 12:48 PM EDT / 2021.07.26 1648 UTC
Wind: from the SE (140 degrees) at 6 MPH (5 KT):0
Visibility: 7 mile(s):0
Sky conditions: partly cloudy
Weather: Towering cumulus clouds observed
Temperature: 89 F (32 C)
Heat index: 96.8 F (36.0 C):1
Dew Point: 73 F (23 C)
Relative Humidity: 59%
Pressure (altimeter): 29.96 in. Hg (1014 hPa)
ob: MMUN 261648Z 14005KT 7SM SCT015TCU 32/23 A2996 RMK 8/200
cycle: 17

Station Type Date Time Source
MMUN TAF 2021/07/26 18:37 UTC NOAA

TAF MMUN 261634Z 2618/2724 13008KT 6SM HZ SCT015 TX32/2621Z TN24/2712Z
BECMG 2620/2621 13015KT BKN015CB
TEMPO 2621/2701 VC RA
FM270200 13008KT P6SM SCT015 BKN250
FM271000 13005KT 6SM HZ BKN015
BECMG 2717/2718 13010KT
FM272100 13015KT 6SM HZ BKN015CB

Example: see airport list